createdAt,value
2019-06-26T00:02:20.603Z,7.53
2019-06-26T00:04:50.976Z,7.65
2019-06-26T00:07:21.570Z,8.50
2019-06-26T00:09:52.239Z,7.60
2019-06-26T00:12:22.949Z,7.53
2019-06-26T00:14:53.711Z,8.50
2019-06-26T00:17:24.436Z,8.47
2019-06-26T00:19:54.766Z,8.10
2019-06-26T00:22:25.185Z,7.90
2019-06-26T00:24:55.919Z,7.80
2019-06-26T00:27:26.660Z,7.30
2019-06-26T00:29:57.075Z,7.87
2019-06-26T00:32:27.424Z,8.27
2019-06-26T00:34:57.767Z,8.23
2019-06-26T00:37:28.168Z,7.90
2019-06-26T00:39:58.533Z,8.27
2019-06-26T00:42:29.240Z,8.43
2019-06-26T00:44:59.961Z,8.67
2019-06-26T00:47:30.597Z,7.97
2019-06-26T00:50:01.450Z,8.73
2019-06-26T00:52:31.837Z,7.53
2019-06-26T00:55:02.206Z,8.33
2019-06-26T00:57:32.576Z,8.20
2019-06-26T01:00:05.977Z,8.27
2019-06-26T01:02:36.381Z,8.93
2019-06-26T01:05:10.077Z,8.50
2019-06-26T01:07:40.781Z,8.80
2019-06-26T01:10:12.614Z,9.43
2019-06-26T01:12:42.966Z,8.70
2019-06-26T01:15:13.396Z,8.90
2019-06-26T01:17:43.792Z,8.80
2019-06-26T01:20:14.189Z,9.57
2019-06-26T01:22:44.542Z,8.77
2019-06-26T01:25:15.425Z,9.40
2019-06-26T01:27:46.204Z,9.63
2019-06-26T01:30:16.575Z,9.57
2019-06-26T01:32:46.928Z,8.93
2019-06-26T01:35:17.327Z,9.60
2019-06-26T01:37:47.675Z,9.33
2019-06-26T01:40:18.470Z,10.20
2019-06-26T01:42:49.574Z,10.60
2019-06-26T01:45:20.305Z,10.90
2019-06-26T01:47:50.740Z,10.20
2019-06-26T01:50:21.792Z,11.60
2019-06-26T01:52:52.221Z,9.77
2019-06-26T01:55:22.773Z,10.20
2019-06-26T01:57:53.581Z,10.93
2019-06-26T02:00:25.056Z,10.53
2019-06-26T02:02:56.003Z,9.80
2019-06-26T02:05:26.349Z,10.20
2019-06-26T02:07:56.784Z,10.27
2019-06-26T02:10:27.282Z,10.83
2019-06-26T02:12:57.998Z,10.53
2019-06-26T02:15:28.749Z,10.13
2019-06-26T02:17:59.121Z,11.27
2019-06-26T02:20:29.523Z,10.87
2019-06-26T02:23:00.265Z,9.90
2019-06-26T02:25:30.644Z,11.07
2019-06-26T02:28:01.080Z,11.20
2019-06-26T02:30:31.707Z,11.00
2019-06-26T02:33:02.058Z,11.63
2019-06-26T02:35:32.537Z,11.17
2019-06-26T02:38:02.930Z,11.40
2019-06-26T02:40:33.540Z,11.33
2019-06-26T02:43:07.084Z,11.47
2019-06-26T02:45:35.964Z,11.40
2019-06-26T02:48:06.709Z,11.30
2019-06-26T02:50:37.170Z,11.87
2019-06-26T02:53:07.640Z,11.50
2019-06-26T02:55:38.260Z,11.00
2019-06-26T02:58:09.011Z,12.43
2019-06-26T03:00:39.424Z,11.57
2019-06-26T03:03:09.767Z,12.60
2019-06-26T03:05:40.130Z,13.63
2019-06-26T03:08:10.561Z,12.20
2019-06-26T03:10:41.639Z,12.80
2019-06-26T03:13:12.408Z,12.70
2019-06-26T03:15:43.411Z,12.83
2019-06-26T03:18:13.991Z,13.43
2019-06-26T03:20:58.156Z,12.90
2019-06-26T03:23:28.613Z,12.63
2019-06-26T03:25:59.418Z,13.53
2019-06-26T03:28:29.830Z,12.77
2019-06-26T03:31:00.573Z,12.47
2019-06-26T03:33:31.213Z,13.17
2019-06-26T03:36:01.634Z,13.30
2019-06-26T03:38:32.031Z,12.20
2019-06-26T03:41:02.397Z,12.20
2019-06-26T03:43:35.416Z,13.97
2019-06-26T03:46:05.208Z,15.20
2019-06-26T03:48:36.456Z,13.90
2019-06-26T03:51:07.134Z,14.33
2019-06-26T03:53:37.525Z,14.37
2019-06-26T03:56:07.911Z,13.90
2019-06-26T03:58:38.312Z,15.00
2019-06-26T04:01:09.399Z,14.40
2019-06-26T04:03:39.801Z,15.20
2019-06-26T04:06:10.585Z,15.77
2019-06-26T04:08:41.321Z,15.90
2019-06-26T04:11:12.043Z,14.50
2019-06-26T04:13:42.441Z,14.83
2019-06-26T04:16:13.167Z,15.77
2019-06-26T04:18:44.266Z,15.80
2019-06-26T04:21:14.981Z,14.90
2019-06-26T04:23:45.865Z,15.47
2019-06-26T04:26:16.638Z,14.47
2019-06-26T04:28:47.413Z,15.50
2019-06-26T04:31:17.975Z,15.40
2019-06-26T04:33:48.694Z,16.33
2019-06-26T04:36:19.390Z,17.13
2019-06-26T04:38:49.739Z,14.60
2019-06-26T04:41:20.172Z,15.97
2019-06-26T04:43:50.894Z,16.47
2019-06-26T04:46:21.731Z,16.43
2019-06-26T04:48:52.147Z,17.47
2019-06-26T04:51:22.519Z,16.93
2019-06-26T04:53:55.684Z,17.10
2019-06-26T04:56:25.942Z,17.90
2019-06-26T04:59:16.428Z,17.00
2019-06-26T05:01:46.802Z,17.80
2019-06-26T05:04:17.514Z,15.43
2019-06-26T05:06:48.420Z,16.17
2019-06-26T05:09:19.344Z,15.63
2019-06-26T05:11:49.700Z,17.40
2019-06-26T05:14:20.426Z,17.97
2019-06-26T05:16:50.868Z,16.90
2019-06-26T05:19:21.614Z,17.30
2019-06-26T05:21:52.323Z,17.50
2019-06-26T05:24:22.909Z,16.73
2019-06-26T05:26:53.287Z,17.07
2019-06-26T05:29:23.665Z,18.13
2019-06-26T05:31:54.028Z,17.27
2019-06-26T05:34:25.052Z,18.40
2019-06-26T05:36:55.789Z,18.00
2019-06-26T05:39:26.141Z,17.37
2019-06-26T05:41:56.840Z,17.43
2019-06-26T05:44:27.551Z,18.63
2019-06-26T05:46:58.216Z,18.30
2019-06-26T05:49:28.622Z,17.93
2019-06-26T05:52:02.030Z,16.20
2019-06-26T05:54:31.068Z,17.10
2019-06-26T05:57:01.501Z,17.93
2019-06-26T05:59:31.848Z,17.40
2019-06-26T06:02:02.489Z,15.87
2019-06-26T06:04:33.158Z,16.20
2019-06-26T06:07:03.964Z,16.37
2019-06-26T06:09:34.378Z,16.53
2019-06-26T06:12:04.749Z,16.77
2019-06-26T06:14:35.155Z,15.93
2019-06-26T06:17:05.501Z,17.10
2019-06-26T06:19:36.616Z,16.53
2019-06-26T06:22:07.102Z,15.73
2019-06-26T06:24:37.500Z,17.10
2019-06-26T06:27:08.277Z,16.53
2019-06-26T06:29:38.652Z,16.07
2019-06-26T06:32:09.214Z,16.47
2019-06-26T06:34:39.905Z,15.90
2019-06-26T06:37:10.682Z,16.90
2019-06-26T06:39:41.150Z,16.17
2019-06-26T06:42:11.563Z,16.53
2019-06-26T06:44:41.907Z,15.10
2019-06-26T06:47:12.731Z,14.33
2019-06-26T06:49:43.108Z,15.50
2019-06-26T06:52:16.647Z,15.40
2019-06-26T06:54:46.272Z,15.73
2019-06-26T06:57:16.659Z,14.40
2019-06-26T06:59:47.075Z,15.27
2019-06-26T07:02:17.507Z,15.70
2019-06-26T07:04:48.220Z,15.20
2019-06-26T07:07:18.953Z,15.40
2019-06-26T07:09:49.664Z,14.40
2019-06-26T07:12:21.043Z,14.20
2019-06-26T07:14:51.608Z,14.30
2019-06-26T07:17:22.028Z,13.83
2019-06-26T07:19:52.685Z,13.30
2019-06-26T07:22:23.652Z,13.30
2019-06-26T07:24:54.024Z,13.70
2019-06-26T07:27:24.409Z,13.30
2019-06-26T07:29:55.584Z,13.57
2019-06-26T07:32:45.641Z,13.20
2019-06-26T07:35:16.395Z,12.43
2019-06-26T07:37:46.731Z,13.20
2019-06-26T07:40:17.459Z,12.70
2019-06-26T07:42:47.820Z,11.50
2019-06-26T07:45:18.864Z,11.43
2019-06-26T07:47:49.637Z,12.00
2019-06-26T07:50:20.016Z,12.40
2019-06-26T07:52:50.791Z,13.10
2019-06-26T07:55:21.333Z,11.60
2019-06-26T07:57:52.144Z,12.00
2019-06-26T08:00:23.121Z,11.33
2019-06-26T08:02:53.542Z,11.63
2019-06-26T08:05:23.915Z,11.27
2019-06-26T08:07:54.927Z,10.10
2019-06-26T08:10:25.349Z,10.60
2019-06-26T08:12:56.129Z,10.50
2019-06-26T08:15:26.872Z,11.03
2019-06-26T08:18:01.040Z,8.67
2019-06-26T08:20:29.348Z,10.03
2019-06-26T08:23:00.426Z,9.97
2019-06-26T08:25:31.057Z,10.70
2019-06-26T08:28:01.907Z,9.80
2019-06-26T08:30:32.328Z,9.67
2019-06-26T08:33:02.718Z,9.17
2019-06-26T08:35:33.128Z,9.23
2019-06-26T08:38:10.254Z,8.90
2019-06-26T08:40:35.807Z,9.23
2019-06-26T08:43:07.408Z,9.30
2019-06-26T08:45:37.740Z,8.47
2019-06-26T08:48:22.650Z,7.70
2019-06-26T08:50:40.322Z,7.47
2019-06-26T08:53:10.701Z,8.17
2019-06-26T08:55:41.430Z,8.00
2019-06-26T08:58:11.803Z,7.87
2019-06-26T09:00:42.256Z,8.30
2019-06-26T09:03:12.658Z,7.57
2019-06-26T09:05:48.131Z,7.60
2019-06-26T09:08:15.194Z,8.00
2019-06-26T09:10:46.147Z,7.10
2019-06-26T09:13:16.860Z,7.63
2019-06-26T09:15:49.871Z,6.10
2019-06-26T09:18:34.267Z,6.73
2019-06-26T09:20:52.302Z,7.33
2019-06-26T09:23:22.661Z,7.60
2019-06-26T09:25:53.408Z,6.60
2019-06-26T09:28:24.224Z,8.73
2019-06-26T09:30:55.422Z,7.00
2019-06-26T09:33:26.117Z,6.90
2019-06-26T09:35:56.958Z,6.73
2019-06-26T09:38:28.003Z,7.57
2019-06-26T09:40:59.101Z,7.43
2019-06-26T09:43:29.665Z,7.70
2019-06-26T09:46:00.536Z,7.13
2019-06-26T09:48:30.960Z,7.50
2019-06-26T09:51:01.364Z,7.17
2019-06-26T09:53:46.085Z,7.70
2019-06-26T09:56:04.217Z,7.97
2019-06-26T09:58:34.585Z,7.70
2019-06-26T10:01:05.233Z,7.50
2019-06-26T10:03:35.979Z,7.17
2019-06-26T10:06:06.316Z,6.63
2019-06-26T10:08:36.832Z,5.97
2019-06-26T10:11:07.565Z,5.53
2019-06-26T10:13:37.962Z,5.63
2019-06-26T10:16:08.348Z,5.83
2019-06-26T10:18:38.662Z,5.77
2019-06-26T10:21:09.518Z,4.93
2019-06-26T10:23:40.258Z,5.90
2019-06-26T10:26:10.777Z,5.60
2019-06-26T10:28:41.146Z,5.20
2019-06-26T10:31:11.490Z,5.53
2019-06-26T10:33:41.856Z,5.90
2019-06-26T10:36:13.030Z,6.10
2019-06-26T10:38:43.972Z,6.30
2019-06-26T10:41:14.327Z,4.87
2019-06-26T10:43:44.733Z,4.90
2019-06-26T10:46:15.856Z,5.40
2019-06-26T10:48:46.280Z,5.70
2019-06-26T10:51:16.622Z,5.37
2019-06-26T10:53:47.055Z,5.70
2019-06-26T10:56:17.420Z,6.43
2019-06-26T10:58:47.893Z,4.80
2019-06-26T11:01:18.530Z,5.37
2019-06-26T11:03:48.948Z,5.50
2019-06-26T11:06:19.614Z,4.60
2019-06-26T11:08:50.022Z,4.97
2019-06-26T11:11:20.889Z,5.40
2019-06-26T11:13:51.967Z,5.03
2019-06-26T11:16:22.845Z,5.33
2019-06-26T11:18:53.973Z,5.37
2019-06-26T11:21:24.437Z,5.07
2019-06-26T11:23:55.059Z,5.07
2019-06-26T11:26:25.745Z,5.50
2019-06-26T11:28:56.664Z,5.70
2019-06-26T11:31:27.028Z,6.87
2019-06-26T11:33:58.100Z,4.60
2019-06-26T11:36:28.462Z,5.33
2019-06-26T11:38:59.129Z,4.70
2019-06-26T11:41:29.874Z,4.77
2019-06-26T11:44:00.317Z,4.50
2019-06-26T11:46:30.927Z,3.90
2019-06-26T11:49:01.553Z,4.10
2019-06-26T11:51:32.007Z,5.17
2019-06-26T11:54:02.373Z,4.80
2019-06-26T11:56:34.483Z,5.57
2019-06-26T11:59:04.826Z,4.47
2019-06-26T12:01:35.601Z,5.60
2019-06-26T12:04:06.724Z,5.30
2019-06-26T12:06:37.754Z,5.20
2019-06-26T12:09:08.789Z,5.20
2019-06-26T12:11:39.146Z,4.80
2019-06-26T12:14:09.856Z,5.60
2019-06-26T12:16:40.242Z,5.10
2019-06-26T12:19:10.627Z,4.77
2019-06-26T12:21:40.988Z,5.10
2019-06-26T12:24:11.502Z,5.67
2019-06-26T12:26:42.223Z,5.40
2019-06-26T12:29:12.980Z,5.00
2019-06-26T12:31:43.636Z,5.70
2019-06-26T12:34:14.476Z,4.93
2019-06-26T12:36:45.193Z,5.13
2019-06-26T12:39:15.529Z,4.57
2019-06-26T12:41:45.909Z,5.20
2019-06-26T12:44:16.526Z,5.60
2019-06-26T12:46:46.951Z,5.17
2019-06-26T12:49:17.288Z,5.00
2019-06-26T12:51:48.105Z,5.60
2019-06-26T12:54:18.845Z,5.20
2019-06-26T12:56:49.504Z,5.27
2019-06-26T12:59:20.271Z,5.77
2019-06-26T13:01:50.708Z,4.67
2019-06-26T13:04:21.584Z,4.70
2019-06-26T13:06:51.921Z,5.07
2019-06-26T13:09:22.678Z,5.53
2019-06-26T13:11:53.607Z,5.03
2019-06-26T13:14:23.996Z,5.10
2019-06-26T13:16:54.395Z,5.12
2019-06-26T13:19:24.756Z,4.13
2019-06-26T13:21:55.214Z,4.90
2019-06-26T13:24:25.850Z,5.30
2019-06-26T13:26:57.382Z,5.33
2019-06-26T13:29:28.064Z,4.43
2019-06-26T13:31:58.472Z,5.80
2019-06-26T13:34:28.802Z,4.80
2019-06-26T13:36:59.219Z,5.27
2019-06-26T13:39:29.913Z,4.87
2019-06-26T13:42:00.665Z,5.63
2019-06-26T13:44:50.558Z,5.37
2019-06-26T13:47:21.330Z,5.20
2019-06-26T13:49:52.036Z,4.43
2019-06-26T13:52:22.695Z,4.67
2019-06-26T13:54:57.034Z,5.60
2019-06-26T13:57:25.655Z,5.80
2019-06-26T13:59:56.007Z,5.00
2019-06-26T14:02:26.830Z,5.00
2019-06-26T14:04:57.149Z,6.00
2019-06-26T14:07:27.872Z,6.20
2019-06-26T14:09:58.305Z,5.93
2019-06-26T14:12:28.734Z,5.90
2019-06-26T14:14:59.249Z,5.90
2019-06-26T14:17:30.281Z,6.10
2019-06-26T14:20:01.162Z,5.70
2019-06-26T14:22:32.023Z,5.50
2019-06-26T14:25:02.823Z,6.27
2019-06-26T14:27:33.261Z,5.83
2019-06-26T14:30:06.857Z,6.10
2019-06-26T14:32:37.551Z,5.75
2019-06-26T14:35:08.514Z,5.73
2019-06-26T14:37:39.232Z,5.67
2019-06-26T14:40:10.259Z,6.07
2019-06-26T14:42:40.688Z,5.27
2019-06-26T14:45:11.059Z,6.20
2019-06-26T14:47:41.790Z,5.57
2019-06-26T14:50:12.309Z,6.20
2019-06-26T14:52:45.777Z,6.17
2019-06-26T14:55:15.528Z,6.20
2019-06-26T14:57:46.298Z,5.57
2019-06-26T15:00:17.176Z,5.97
2019-06-26T15:02:47.514Z,5.50
2019-06-26T15:05:17.970Z,6.13
2019-06-26T15:07:50.243Z,6.60
2019-06-26T15:10:21.396Z,5.73
2019-06-26T15:12:51.746Z,6.40
2019-06-26T15:15:22.308Z,5.37
2019-06-26T15:17:52.648Z,6.30
2019-06-26T15:20:23.203Z,6.93
2019-06-26T15:22:53.537Z,6.33
2019-06-26T15:25:23.957Z,6.37
2019-06-26T15:27:55.929Z,5.80
2019-06-26T15:30:26.317Z,6.57
2019-06-26T15:32:56.684Z,5.97
2019-06-26T15:35:27.087Z,6.33
2019-06-26T15:37:57.464Z,6.53
2019-06-26T15:40:28.279Z,5.40
2019-06-26T15:42:58.742Z,5.77
2019-06-26T15:45:29.215Z,6.37
2019-06-26T15:47:59.599Z,5.50
2019-06-26T15:50:30.294Z,6.43
2019-06-26T15:53:00.678Z,5.90
2019-06-26T15:55:31.356Z,5.80
2019-06-26T15:58:01.702Z,5.97
2019-06-26T16:00:32.627Z,6.43
2019-06-26T16:03:02.999Z,7.03
2019-06-26T16:05:33.347Z,5.87
2019-06-26T16:08:04.152Z,5.00
2019-06-26T16:10:34.966Z,5.60
2019-06-26T16:13:05.291Z,6.10
2019-06-26T16:15:36.342Z,5.63
2019-06-26T16:18:08.342Z,4.83
2019-06-26T16:20:39.157Z,5.30
2019-06-26T16:23:09.516Z,5.73
2019-06-26T16:25:40.324Z,5.77
2019-06-26T16:28:10.669Z,5.30
2019-06-26T16:30:41.773Z,6.03
2019-06-26T16:33:12.118Z,5.40
2019-06-26T16:35:42.817Z,5.10
2019-06-26T16:38:13.552Z,5.80
2019-06-26T16:40:44.209Z,5.90
2019-06-26T16:43:14.950Z,4.87
2019-06-26T16:45:45.434Z,4.77
2019-06-26T16:48:15.751Z,4.90
2019-06-26T16:50:46.428Z,5.17
2019-06-26T16:53:17.194Z,5.10
2019-06-26T16:55:47.524Z,4.90
2019-06-26T16:58:17.964Z,4.83
2019-06-26T17:00:49.114Z,4.80
2019-06-26T17:03:19.463Z,5.10
2019-06-26T17:05:49.882Z,5.20
2019-06-26T17:08:20.229Z,5.57
2019-06-26T17:10:51.600Z,4.70
2019-06-26T17:13:22.064Z,5.73
2019-06-26T17:15:52.446Z,4.47
2019-06-26T17:18:22.806Z,5.17
2019-06-26T17:20:53.192Z,5.20
2019-06-26T17:23:23.557Z,4.70
2019-06-26T17:25:53.925Z,4.67
2019-06-26T17:28:24.304Z,5.10
2019-06-26T17:30:55.081Z,5.10
2019-06-26T17:33:25.791Z,4.80
2019-06-26T17:35:56.213Z,4.50
2019-06-26T17:38:26.697Z,4.57
2019-06-26T17:40:59.486Z,4.80
2019-06-26T17:43:29.135Z,4.90
2019-06-26T17:45:59.904Z,4.87
2019-06-26T17:48:31.028Z,4.93
2019-06-26T17:51:01.797Z,4.37
2019-06-26T17:53:32.226Z,4.50
2019-06-26T17:56:03.203Z,3.97
2019-06-26T17:58:33.961Z,3.90
2019-06-26T18:01:04.345Z,4.10
2019-06-26T18:03:34.706Z,3.80
2019-06-26T18:06:05.080Z,3.30
2019-06-26T18:08:35.482Z,3.30
2019-06-26T18:11:05.854Z,3.43
2019-06-26T18:13:36.573Z,3.23
2019-06-26T18:16:07.211Z,3.07
2019-06-26T18:18:37.567Z,2.40
2019-06-26T18:21:08.004Z,2.80
2019-06-26T18:23:38.798Z,3.03
2019-06-26T18:26:13.523Z,2.57
2019-06-26T18:28:41.431Z,2.77
2019-06-26T18:31:12.087Z,3.37
2019-06-26T18:33:44.347Z,2.90
2019-06-26T18:36:14.810Z,2.67
2019-06-26T18:38:45.548Z,2.97
2019-06-26T18:41:18.521Z,2.93
2019-06-26T18:43:48.396Z,3.20
2019-06-26T18:46:19.143Z,3.10
2019-06-26T18:48:49.509Z,3.00
2019-06-26T18:51:19.908Z,3.30
2019-06-26T18:53:53.751Z,3.60
2019-06-26T18:56:22.435Z,4.00
2019-06-26T18:58:53.511Z,3.37
2019-06-26T19:01:24.245Z,3.57
2019-06-26T19:03:55.001Z,4.00
2019-06-26T19:06:25.736Z,3.40
2019-06-26T19:08:56.071Z,3.30
2019-06-26T19:11:46.132Z,3.50
2019-06-26T19:14:16.552Z,3.70
2019-06-26T19:16:46.957Z,4.07
2019-06-26T19:19:17.362Z,3.87
2019-06-26T19:21:48.073Z,4.10
2019-06-26T19:24:18.548Z,4.07
2019-06-26T19:26:48.930Z,3.73
2019-06-26T19:29:19.595Z,3.37
2019-06-26T19:31:50.037Z,4.40
2019-06-26T19:34:20.381Z,4.50
2019-06-26T19:36:50.982Z,4.27
2019-06-26T19:39:21.468Z,3.93
2019-06-26T19:41:52.569Z,4.10
2019-06-26T19:44:23.883Z,4.57
2019-06-26T19:46:54.606Z,4.33
2019-06-26T19:49:25.129Z,4.30
2019-06-26T19:51:55.923Z,3.63
2019-06-26T19:54:31.061Z,4.37
2019-06-26T19:56:59.054Z,4.40
2019-06-26T19:59:29.485Z,4.40
2019-06-26T20:01:59.879Z,3.97
2019-06-26T20:04:30.309Z,4.20
2019-06-26T20:07:01.669Z,5.03
2019-06-26T20:09:32.128Z,5.20
2019-06-26T20:12:02.545Z,4.13
2019-06-26T20:14:33.771Z,5.40
2019-06-26T20:17:04.199Z,4.90
2019-06-26T20:19:35.596Z,4.60
2019-06-26T20:22:06.321Z,4.63
2019-06-26T20:24:44.166Z,5.07
2019-06-26T20:27:08.870Z,4.93
2019-06-26T20:29:39.600Z,4.27
2019-06-26T20:32:10.040Z,4.20
2019-06-26T20:34:40.426Z,4.37
2019-06-26T20:37:10.825Z,4.37
2019-06-26T20:39:41.588Z,4.20
2019-06-26T20:42:11.962Z,3.70
2019-06-26T20:44:42.317Z,4.00
2019-06-26T20:47:12.660Z,4.40
2019-06-26T20:49:52.686Z,4.33
2019-06-26T20:52:15.496Z,4.63
2019-06-26T20:54:59.807Z,4.60
2019-06-26T20:57:18.615Z,4.23
2019-06-26T20:59:49.018Z,4.00
2019-06-26T21:02:20.254Z,4.30
2019-06-26T21:04:50.649Z,4.37
2019-06-26T21:07:21.202Z,4.73
2019-06-26T21:09:51.642Z,3.97
2019-06-26T21:12:22.261Z,4.27
2019-06-26T21:14:53.349Z,4.40
2019-06-26T21:17:25.806Z,3.67
2019-06-26T21:19:57.352Z,4.73
2019-06-26T21:22:28.354Z,4.43
2019-06-26T21:24:58.791Z,4.13
2019-06-26T21:27:32.230Z,3.93
2019-06-26T21:30:02.197Z,4.47
2019-06-26T21:32:32.635Z,4.50
2019-06-26T21:35:03.325Z,3.90
2019-06-26T21:37:33.706Z,3.97
2019-06-26T21:40:04.686Z,4.17
2019-06-26T21:42:35.389Z,4.13
2019-06-26T21:45:06.600Z,4.67
2019-06-26T21:47:36.968Z,4.40
2019-06-26T21:50:07.653Z,4.20
2019-06-26T21:52:38.031Z,4.20
2019-06-26T21:55:08.819Z,3.80
2019-06-26T21:57:42.024Z,4.40
2019-06-26T22:00:13.374Z,3.97
2019-06-26T22:02:44.146Z,3.80
2019-06-26T22:05:14.866Z,4.00
2019-06-26T22:07:45.213Z,3.50
2019-06-26T22:10:16.283Z,3.13
2019-06-26T22:12:46.670Z,4.27
2019-06-26T22:15:17.411Z,3.10
2019-06-26T22:17:48.851Z,2.83
2019-06-26T22:20:19.874Z,3.23
2019-06-26T22:22:50.282Z,2.90
2019-06-26T22:25:20.609Z,3.53
2019-06-26T22:27:51.344Z,3.10
2019-06-26T22:30:21.713Z,3.43
2019-06-26T22:32:52.116Z,3.30
2019-06-26T22:35:22.458Z,3.07
2019-06-26T22:37:52.839Z,3.20
2019-06-26T22:40:23.210Z,3.03
2019-06-26T22:42:53.589Z,3.90
2019-06-26T22:45:24.281Z,2.80
2019-06-26T22:47:54.650Z,2.87
2019-06-26T22:50:25.061Z,3.23
2019-06-26T22:52:55.462Z,2.83
2019-06-26T22:55:25.803Z,3.00
2019-06-26T22:57:56.509Z,2.80
2019-06-26T23:00:26.929Z,3.73
2019-06-26T23:02:57.275Z,2.97
2019-06-26T23:05:27.772Z,3.10
2019-06-26T23:07:58.133Z,3.67
2019-06-26T23:10:29.271Z,3.30
2019-06-26T23:12:59.680Z,3.47
2019-06-26T23:15:30.077Z,3.40
2019-06-26T23:18:00.735Z,3.40
2019-06-26T23:20:31.446Z,3.47
2019-06-26T23:23:01.914Z,3.50
2019-06-26T23:25:32.626Z,3.60
2019-06-26T23:28:03.277Z,3.87
2019-06-26T23:30:33.645Z,4.23
2019-06-26T23:33:04.360Z,4.30
2019-06-26T23:35:35.015Z,4.00
2019-06-26T23:38:05.745Z,4.53
2019-06-26T23:40:36.535Z,3.93
2019-06-26T23:43:07.136Z,4.50
2019-06-26T23:45:37.513Z,4.83
2019-06-26T23:48:07.881Z,4.70
2019-06-26T23:50:38.221Z,4.37
2019-06-26T23:53:08.920Z,4.93
2019-06-26T23:55:39.284Z,4.40
2019-06-26T23:58:09.698Z,5.23
